• Join FlightAware (Why Join?)
  • Login
  • US Flag 
10:02AM EST


 

Airport Tracker/Info


-or-


 

Live Flight TrackerFlight Track Log ✈ 9Y-SXM ✈ 03-May-2013 ✈ TBPB / BGI - TTPP / POS

Flight Track Log - Related Links

Times and Time Zones

All times are in EDT time to prevent confusion due to time zone crossing. See the 9Y-SXM flight status page for this flight to view local times or setup timezone preferences in your user account.

Time Position Orientation Groundspeed Altitude Reporting Facility
EDT Latitude Longitude Course Direction KTS MPH feet Rate Location/Type
04:26PM 12.4151 -59.9874 216° Southwest  Level Estimated
04:27PM 12.3326 -60.0491 216° Southwest  Level Estimated
04:28PM 12.2500 -60.1108 216° Southwest  Level Estimated
04:29PM 12.1675 -60.1724 216° Southwest  Level Estimated
04:30PM 12.0850 -60.2340 216° Southwest  Level Estimated
04:31PM 12.0024 -60.2955 216° Southwest  Level Estimated
04:32PM 11.9198 -60.3570 216° Southwest  Level Estimated
04:33PM 11.8372 -60.4184 216° Southwest  Level Estimated
04:34PM 11.7546 -60.4799 216° Southwest  Level Estimated
04:35PM 11.6720 -60.5413 216° Southwest  Level Estimated
04:36PM 11.5894 -60.6026 216° Southwest  Level Estimated
04:37PM 11.5068 -60.6639 216° Southwest  Level Estimated
04:38PM 11.4241 -60.7252 216° Southwest  Level Estimated
04:39PM 11.3414 -60.7865 216° Southwest  Level Estimated
04:40PM 11.2588 -60.8477 216° Southwest  Level Estimated
04:41PM 11.1761 -60.9088 216° Southwest  Level Estimated
04:42PM 11.0934 -60.9700 216° Southwest  Level Estimated
04:43PM 11.0107 -61.0311 216° Southwest  Level Estimated
04:44PM 10.9279 -61.0922 216° Southwest  Level Estimated
04:45PM 10.8452 -61.1532 216° Southwest  Level Estimated
04:46PM 10.7625 -61.2142 216° Southwest  Level Estimated
04:47PM 10.6797 -61.2752 216° Southwest  Level Estimated
04:48PM 10.5969 -61.3361 216° Southwest  Level Estimated
04:49PM 10.5954 -61.3372 216° Southwest  Level Estimated
04:50PM 10.5954 -61.3372 243° Southwest  Level Estimated
04:51PM 10.5954 -61.3372 243° Southwest  Level Estimated
04:52PM 10.5954 -61.3372 243° Southwest  Level Estimated
04:53PM 10.5954 -61.3372 243° Southwest  Level Estimated
04:54PM 10.5954 -61.3372 243° Southwest  Level Estimated
04:55PM 10.5954 -61.3372 243° Southwest  Level Estimated
04:56PM 10.5954 -61.3372 243° Southwest  Level Estimated
04:57PM 10.5954 -61.3372 243° Southwest  Level Estimated
04:58PM 10.5954 -61.3372 243° Southwest  Level Estimated
04:59PM 10.5954 -61.3372 243° Southwest  Level Estimated
05:00PM 10.5954 -61.3372 243° Southwest  Level Estimated
05:01PM 10.5954 -61.3372 243° Southwest  Level Estimated
05:02PM 10.5954 -61.3372 243° Southwest  Level Estimated
05:03PM 10.5954 -61.3372 243° Southwest  Level Estimated
05:04PM 10.5954 -61.3372 243° Southwest  Level Estimated